Time;durP1;ratioP1;P1;durP2;ratioP2;P2;SDS_P1;SDS_P2;PMS_P1;PMS_P2;Temp;Humidity;BMP_temperature;BMP_pressure;BME280_temperature;BME280_humidity;BME280_pressure;Samples;Min_cycle;Max_cycle;Signal;HPM_P1;HPM_P2
2023/04/13 18:15:54;;;;;;;;;0.00;0.00;;;;;14.08;62.54;100060.72;5428873;22;46618;-89
2023/04/13 18:18:24;;;;;;;;;1.00;0.25;;;;;13.92;63.56;100062.28;5057089;28;45743;-87
2023/04/13 18:20:51;;;;;;;;;0.00;0.00;;;;;13.80;64.36;100073.00;5077302;27;45582;-85
2023/04/13 18:23:17;;;;;;;;;0.00;0.00;;;;;13.64;64.50;100079.81;5069597;28;46935;-90
2023/04/13 18:25:42;;;;;;;;;1.00;1.00;;;;;13.53;63.80;100074.72;5071497;27;45703;-87
2023/04/13 18:28:07;;;;;;;;;1.00;1.00;;;;;13.35;65.07;100069.31;5075066;27;45907;-87
2023/04/13 18:30:33;;;;;;;;;0.25;0.25;;;;;13.28;65.18;100086.66;5072159;27;45933;-87
2023/04/13 18:32:58;;;;;;;;;0.00;0.00;;;;;13.18;65.25;100077.91;5047432;27;47417;-88
2023/04/13 18:35:24;;;;;;;;;2.00;0.00;;;;;13.09;65.50;100086.59;5053825;28;46995;-91
2023/04/13 18:37:51;;;;;;;;;0.00;0.00;;;;;12.93;65.08;100081.88;5072386;27;45776;-88
2023/04/13 18:40:16;;;;;;;;;0.50;0.50;;;;;12.81;65.28;100078.53;5074180;28;45484;-91
2023/04/13 18:42:42;;;;;;;;;1.75;0.25;;;;;12.70;65.52;100099.69;5068445;27;46412;-89
2023/04/13 18:45:18;;;;;;;;;0.75;0.75;;;;;12.54;65.38;100099.38;5065399;27;47233;-91
2023/04/13 18:47:50;;;;;;;;;1.00;1.00;;;;;12.37;65.98;100097.38;5070169;27;45790;-91
2023/04/13 18:50:16;;;;;;;;;0.00;0.00;;;;;12.29;66.60;100105.09;5054706;28;45949;-83
2023/04/13 18:52:41;;;;;;;;;0.50;0.00;;;;;12.16;66.07;100110.56;5069651;27;47706;-83
2023/04/13 18:55:07;;;;;;;;;0.50;0.00;;;;;12.06;67.17;100110.53;5068429;27;45880;-85
2023/04/13 18:57:33;;;;;;;;;1.00;0.00;;;;;12.00;67.73;100120.72;5068922;27;45771;-87
2023/04/13 18:59:58;;;;;;;;;0.75;0.00;;;;;12.00;67.51;100123.34;5066213;28;46501;-89
2023/04/13 19:02:24;;;;;;;;;0.25;0.00;;;;;11.94;67.78;100129.09;5064480;28;48110;-91
2023/04/13 19:04:49;;;;;;;;;0.00;0.00;;;;;11.89;68.44;100136.53;5066441;27;45760;-88
2023/04/13 19:07:16;;;;;;;;;0.00;0.00;;;;;11.80;68.71;100132.06;5073492;27;46666;-87
2023/04/13 19:09:41;;;;;;;;;2.00;0.00;;;;;11.78;68.85;100143.53;5069975;27;46853;-87
2023/04/13 19:12:07;;;;;;;;;1.00;0.00;;;;;11.76;68.80;100144.63;5064547;27;46632;-85
2023/04/13 19:14:32;;;;;;;;;1.50;1.00;;;;;11.71;69.13;100136.28;5064844;27;47655;-84
2023/04/13 19:16:59;;;;;;;;;0.00;0.00;;;;;11.72;68.44;100132.66;5065102;27;46609;-87
2023/04/13 19:19:25;;;;;;;;;1.00;1.00;;;;;11.68;68.61;100134.72;5068251;27;46142;-86
2023/04/13 19:21:54;;;;;;;;;0.00;0.00;;;;;11.68;68.96;100141.75;5052413;28;49042;-85
2023/04/13 19:24:20;;;;;;;;;0.75;0.00;;;;;11.61;69.17;100122.22;5064586;27;45783;-88
2023/04/13 19:26:46;;;;;;;;;2.00;1.00;;;;;11.62;69.34;100126.53;5072084;27;46187;-87
2023/04/13 19:29:12;;;;;;;;;1.00;1.00;;;;;11.60;69.21;100136.34;5077848;27;45694;-86
2023/04/13 19:31:43;;;;;;;;;1.75;0.75;;;;;11.56;69.55;100137.50;5086409;27;45784;-86
2023/04/13 19:34:09;;;;;;;;;1.00;1.00;;;;;11.60;69.27;100149.44;5096637;27;45673;-85
2023/04/13 19:36:36;;;;;;;;;1.75;1.00;;;;;11.59;69.06;100148.59;5080792;27;45677;-86
2023/04/13 19:39:05;;;;;;;;;1.00;0.25;;;;;11.57;69.25;100158.38;5092116;27;45657;-87
2023/04/13 19:41:32;;;;;;;;;1.00;1.00;;;;;11.52;69.53;100157.94;5088901;28;45543;-86
2023/04/13 19:43:59;;;;;;;;;1.00;0.00;;;;;11.50;69.44;100151.97;5080379;27;46719;-86
2023/04/13 19:46:25;;;;;;;;;0.25;0.25;;;;;11.53;68.90;100166.66;5073389;27;45921;-86
2023/04/13 19:48:51;;;;;;;;;4.00;2.00;;;;;11.51;68.93;100172.00;5076484;27;46159;-85
2023/04/13 19:51:17;;;;;;;;;1.00;1.00;;;;;11.47;68.86;100181.09;5071868;27;46239;-84
2023/04/13 19:53:42;;;;;;;;;1.50;1.00;;;;;11.46;69.04;100176.78;5077900;27;47055;-83
2023/04/13 19:56:09;;;;;;;;;1.00;1.00;;;;;11.47;69.21;100167.97;5063965;27;45890;-81
2023/04/13 19:58:34;;;;;;;;;0.00;0.00;;;;;11.46;68.67;100178.59;5068934;27;45858;-82
2023/04/13 20:01:00;;;;;;;;;2.50;1.00;;;;;11.48;68.74;100184.56;5069757;27;46236;-84
2023/04/13 20:03:27;;;;;;;;;1.00;1.00;;;;;11.48;69.64;100182.75;5077560;27;46675;-85
2023/04/13 20:05:55;;;;;;;;;1.00;1.00;;;;;11.49;69.08;100180.97;5066196;27;46240;-84
2023/04/13 20:08:20;;;;;;;;;1.00;1.00;;;;;11.52;69.81;100188.59;5073169;27;45854;-84
2023/04/13 20:10:45;;;;;;;;;2.00;1.00;;;;;11.53;69.68;100187.63;5074991;27;46828;-85
2023/04/13 20:13:11;;;;;;;;;8.00;6.00;;;;;11.59;69.87;100195.84;5055457;28;47079;-85
2023/04/13 20:15:37;;;;;;;;;0.00;0.00;;;;;11.60;68.93;100194.88;5074597;28;46090;-84
2023/04/13 20:18:04;;;;;;;;;2.00;1.25;;;;;11.64;69.62;100198.91;5089079;27;45821;-84
2023/04/13 20:20:31;;;;;;;;;2.00;2.00;;;;;11.67;69.81;100203.06;5062077;27;45855;-84
2023/04/13 20:22:56;;;;;;;;;1.25;1.25;;;;;11.65;70.01;100202.38;5076814;27;46040;-84
2023/04/13 20:25:24;;;;;;;;;3.00;2.50;;;;;11.72;68.95;100200.88;5077756;27;45596;-87
2023/04/13 20:27:50;;;;;;;;;4.00;2.00;;;;;11.73;69.84;100202.59;5076178;27;46585;-85
2023/04/13 20:30:15;;;;;;;;;1.75;1.00;;;;;11.70;69.77;100195.78;5071323;27;45817;-85
2023/04/13 20:32:41;;;;;;;;;2.00;1.50;;;;;11.73;69.84;100192.09;5079496;27;46095;-81
2023/04/13 20:35:07;;;;;;;;;1.00;1.00;;;;;11.75;69.61;100195.44;5066692;28;46076;-84
2023/04/13 20:37:33;;;;;;;;;1.75;1.75;;;;;11.79;69.47;100209.97;5074511;28;45783;-81
2023/04/13 20:39:59;;;;;;;;;2.25;1.00;;;;;11.76;69.51;100204.97;5076228;27;45776;-80
2023/04/13 20:42:25;;;;;;;;;1.00;1.00;;;;;11.76;69.98;100211.06;5083087;27;45592;-85
2023/04/13 20:44:57;;;;;;;;;1.00;1.00;;;;;11.73;69.31;100211.31;5077152;27;46151;-84
2023/04/13 20:47:25;;;;;;;;;1.50;0.50;;;;;11.67;68.59;100214.41;5073723;28;45775;-84
2023/04/13 20:49:53;;;;;;;;;1.00;1.00;;;;;11.63;68.35;100212.16;5077137;27;46761;-85
2023/04/13 20:52:21;;;;;;;;;0.50;0.50;;;;;11.56;68.71;100211.81;5084596;27;45948;-82
2023/04/13 20:54:46;;;;;;;;;2.00;2.00;;;;;11.57;69.70;100223.97;5076821;27;46062;-84
2023/04/13 20:57:12;;;;;;;;;1.75;1.00;;;;;11.54;68.80;100219.00;5076540;28;45732;-80
2023/04/13 20:59:37;;;;;;;;;0.00;0.00;;;;;11.49;68.22;100220.31;5076857;28;46078;-81
2023/04/13 21:02:04;;;;;;;;;1.00;1.00;;;;;11.46;68.53;100221.38;5074038;27;46089;-86
2023/04/13 21:04:29;;;;;;;;;2.00;0.75;;;;;11.41;68.50;100207.81;5073765;28;45610;-82
2023/04/13 21:06:55;;;;;;;;;1.00;1.00;;;;;11.33;68.53;100212.88;5063383;28;45758;-85
2023/04/13 21:09:20;;;;;;;;;1.00;1.00;;;;;11.26;68.66;100214.31;5077704;27;46315;-85
2023/04/13 21:11:46;;;;;;;;;2.50;1.00;;;;;11.22;69.02;100203.25;5079800;27;46375;-87
2023/04/13 21:14:15;;;;;;;;;1.00;1.00;;;;;11.24;69.16;100208.34;5072707;27;45787;-82
2023/04/13 21:16:40;;;;;;;;;2.00;1.00;;;;;11.25;68.92;100210.84;5080177;27;45785;-82
2023/04/13 21:19:06;;;;;;;;;2.00;2.00;;;;;11.19;69.10;100205.25;5082337;27;46078;-88
2023/04/13 21:21:31;;;;;;;;;1.00;1.00;;;;;11.18;69.62;100207.03;5076824;28;46176;-89
2023/04/13 21:23:57;;;;;;;;;0.00;0.00;;;;;11.21;69.81;100208.59;5065115;28;45593;-86
2023/04/13 21:26:22;;;;;;;;;1.00;1.00;;;;;11.19;69.96;100205.25;5076753;28;45757;-86
2023/04/13 21:28:48;;;;;;;;;1.00;1.00;;;;;11.20;70.22;100201.69;5074930;28;45610;-87
2023/04/13 21:31:14;;;;;;;;;1.00;0.00;;;;;11.22;69.51;100203.25;5077897;28;46541;-85
2023/04/13 21:33:40;;;;;;;;;1.50;1.00;;;;;11.21;69.21;100208.59;5079374;28;45790;-84
2023/04/13 21:36:07;;;;;;;;;0.00;0.00;;;;;11.12;68.91;100206.72;5079760;28;45727;-86
2023/04/13 21:38:33;;;;;;;;;1.00;1.00;;;;;11.08;69.46;100210.50;5081589;28;46651;-85
2023/04/13 21:40:58;;;;;;;;;0.00;0.00;;;;;11.05;69.51;100209.00;5059920;28;45787;-83
2023/04/13 21:43:24;;;;;;;;;0.00;0.00;;;;;10.94;69.45;100204.59;5078614;28;45999;-82
2023/04/13 21:45:49;;;;;;;;;0.50;0.00;;;;;10.88;69.49;100199.00;5085944;27;46396;-84
2023/04/13 21:48:14;;;;;;;;;0.25;0.25;;;;;10.83;69.25;100209.00;5079682;27;45576;-88
2023/04/13 21:50:41;;;;;;;;;0.75;0.75;;;;;10.77;69.97;100207.69;5076429;28;46634;-85
2023/04/13 21:53:07;;;;;;;;;1.00;0.50;;;;;10.78;70.31;100205.91;5062645;28;45815;-84
2023/04/13 21:55:32;;;;;;;;;1.00;0.00;;;;;10.81;69.99;100216.16;5076839;28;46054;-85
2023/04/13 21:57:57;;;;;;;;;0.00;0.00;;;;;10.79;69.76;100215.44;5078339;27;46682;-81
2023/04/13 22:00:23;;;;;;;;;0.00;0.00;;;;;10.74;70.18;100217.59;5077032;28;45782;-80
2023/04/13 22:02:49;;;;;;;;;1.00;1.00;;;;;10.76;70.47;100213.06;5077636;28;45679;-81
2023/04/13 22:05:15;;;;;;;;;0.50;0.25;;;;;10.75;69.91;100221.88;5070488;28;46578;-86
2023/04/13 22:07:41;;;;;;;;;0.00;0.00;;;;;10.72;70.30;100219.50;5067638;27;47397;-86
2023/04/13 22:10:07;;;;;;;;;1.75;0.00;;;;;10.70;70.13;100219.59;5042701;28;46736;-85
2023/04/13 22:12:33;;;;;;;;;0.00;0.00;;;;;10.66;70.36;100219.97;5079381;28;45562;-85
2023/04/13 22:14:58;;;;;;;;;0.00;0.00;;;;;10.64;70.44;100214.00;5082369;28;45867;-80
2023/04/13 22:17:24;;;;;;;;;1.00;0.00;;;;;10.61;70.19;100217.72;5081030;27;45702;-81
2023/04/13 22:19:49;;;;;;;;;1.00;0.50;;;;;10.53;70.67;100209.59;5076228;28;48062;-87
2023/04/13 22:22:14;;;;;;;;;1.00;1.00;;;;;10.55;70.47;100214.72;5077360;28;46038;-82
2023/04/13 22:24:40;;;;;;;;;0.50;0.00;;;;;10.49;70.56;100214.25;5074082;28;45695;-82
2023/04/13 22:27:05;;;;;;;;;2.25;1.00;;;;;10.46;70.76;100227.59;5078396;27;45713;-87
2023/04/13 22:29:30;;;;;;;;;1.00;0.75;;;;;10.46;71.55;100208.41;5072046;27;48139;-89
2023/04/13 22:31:57;;;;;;;;;1.00;1.00;;;;;10.47;71.73;100218.75;5074774;27;46235;-80
2023/04/13 22:34:22;;;;;;;;;0.25;0.00;;;;;10.52;71.60;100214.03;5075179;27;46387;-80
2023/04/13 22:36:48;;;;;;;;;0.00;0.00;;;;;10.57;71.73;100213.66;5071071;28;46463;-81
2023/04/13 22:39:13;;;;;;;;;0.50;0.50;;;;;10.57;71.29;100204.97;5080932;27;46774;-84
2023/04/13 22:41:39;;;;;;;;;0.00;0.00;;;;;10.56;70.83;100212.00;5091425;27;45565;-86
2023/04/13 22:44:04;;;;;;;;;0.00;0.00;;;;;10.55;71.13;100204.25;5074907;28;45521;-87
2023/04/13 22:46:30;;;;;;;;;0.00;0.00;;;;;10.52;71.34;100207.94;5066557;28;45505;-84
2023/04/13 22:48:55;;;;;;;;;0.00;0.00;;;;;10.55;71.57;100206.88;5085733;28;45864;-84
2023/04/13 22:51:21;;;;;;;;;1.00;0.00;;;;;10.55;71.67;100212.09;5081220;28;45873;-89
2023/04/13 22:53:49;;;;;;;;;0.75;0.00;;;;;10.56;71.86;100209.38;5080708;28;46461;-89
2023/04/13 22:56:15;;;;;;;;;0.00;0.00;;;;;10.63;71.89;100214.97;5084283;28;46485;-90
2023/04/13 22:58:41;;;;;;;;;0.00;0.00;;;;;10.65;71.86;100216.50;5093772;27;45732;-84
2023/04/13 23:01:08;;;;;;;;;0.75;0.00;;;;;10.65;71.70;100211.28;5082386;28;45884;-85
2023/04/13 23:03:39;;;;;;;;;1.00;0.25;;;;;10.71;71.58;100213.41;5080160;27;45633;-85
2023/04/13 23:06:05;;;;;;;;;0.00;0.00;;;;;10.69;71.32;100209.28;5101528;27;46817;-83
2023/04/13 23:08:30;;;;;;;;;0.00;0.00;;;;;10.74;71.23;100212.38;5094387;27;47335;-86
2023/04/13 23:10:55;;;;;;;;;1.00;1.00;;;;;10.75;71.64;100203.53;5086551;27;46027;-82
2023/04/13 23:13:21;;;;;;;;;0.00;0.00;;;;;10.78;71.53;100213.78;5061628;28;45648;-87
2023/04/13 23:15:46;;;;;;;;;1.00;0.00;;;;;10.73;71.01;100195.81;5077337;27;46237;-89
2023/04/13 23:18:11;;;;;;;;;0.00;0.00;;;;;10.74;71.47;100202.69;5086176;27;45727;-86
2023/04/13 23:20:37;;;;;;;;;0.75;0.00;;;;;10.72;71.40;100219.50;5089316;27;45728;-85
2023/04/13 23:23:02;;;;;;;;;0.00;0.00;;;;;10.72;71.55;100220.34;5084590;27;45692;-86
2023/04/13 23:25:27;;;;;;;;;1.00;1.00;;;;;10.70;71.41;100211.75;5076210;27;45615;-90
2023/04/13 23:27:53;;;;;;;;;0.50;0.00;;;;;10.68;71.30;100213.66;5082480;28;46246;-85
2023/04/13 23:30:19;;;;;;;;;0.00;0.00;;;;;10.71;71.30;100223.06;5064208;28;45821;-86
2023/04/13 23:32:45;;;;;;;;;0.00;0.00;;;;;10.70;71.59;100221.38;5077966;28;45722;-90
2023/04/13 23:35:10;;;;;;;;;1.00;0.00;;;;;10.68;71.58;100218.06;5075011;28;45679;-90
2023/04/13 23:37:35;;;;;;;;;0.75;0.00;;;;;10.66;71.44;100214.72;5074575;28;45702;-88
2023/04/13 23:40:01;;;;;;;;;0.00;0.00;;;;;10.67;71.92;100221.63;5089439;27;45614;-85
2023/04/13 23:42:26;;;;;;;;;1.00;0.75;;;;;10.66;71.73;100220.81;5087812;28;45753;-86
2023/04/13 23:44:52;;;;;;;;;1.00;1.00;;;;;10.67;71.83;100226.88;5080832;28;46475;-85
2023/04/13 23:47:17;;;;;;;;;1.00;1.00;;;;;10.67;71.90;100221.63;5083877;27;45667;-84
2023/04/13 23:49:45;;;;;;;;;1.00;0.75;;;;;10.69;71.81;100232.84;5069461;27;45910;-86
2023/04/13 23:52:10;;;;;;;;;0.00;0.00;;;;;10.71;71.94;100225.69;5083814;28;45960;-92
2023/04/13 23:54:36;;;;;;;;;1.00;1.00;;;;;10.72;71.98;100224.72;5082790;28;46042;-85
2023/04/13 23:57:01;;;;;;;;;1.00;0.00;;;;;10.71;72.21;100229.13;5076567;28;45569;-83
2023/04/13 23:59:26;;;;;;;;;0.00;0.00;;;;;10.76;72.03;100234.03;5081943;28;45620;-81
